createdAt,value
2022-08-28T00:02:01.332Z,100.00
2022-08-28T00:07:23.029Z,100.00
2022-08-28T00:12:47.550Z,100.00
2022-08-28T00:18:09.300Z,100.00
2022-08-28T00:23:42.473Z,100.00
2022-08-28T00:29:06.094Z,100.00
2022-08-28T00:34:32.930Z,100.00
2022-08-28T00:39:55.442Z,100.00
2022-08-28T00:45:19.828Z,100.00
2022-08-28T00:51:01.000Z,100.00
2022-08-28T00:56:22.826Z,100.00
2022-08-28T01:01:46.132Z,100.00
2022-08-28T01:07:10.646Z,100.00
2022-08-28T01:12:33.590Z,100.00
2022-08-28T01:18:04.688Z,100.00
2022-08-28T01:23:42.362Z,100.00
2022-08-28T01:29:04.317Z,100.00
2022-08-28T01:34:26.382Z,100.00
2022-08-28T01:39:48.171Z,100.00
2022-08-28T01:45:15.853Z,100.00
2022-08-28T01:50:38.086Z,100.00
2022-08-28T01:56:04.669Z,100.00
2022-08-28T02:01:26.600Z,100.00
2022-08-28T02:06:48.337Z,100.00
2022-08-28T02:12:10.159Z,100.00
2022-08-28T02:17:32.950Z,100.00
2022-08-28T02:22:55.901Z,100.00
2022-08-28T02:28:17.615Z,100.00
2022-08-28T02:33:42.984Z,100.00
2022-08-28T02:39:04.704Z,100.00
2022-08-28T02:44:26.421Z,100.00
2022-08-28T02:49:48.182Z,100.00
2022-08-28T02:55:12.572Z,100.00
2022-08-28T03:00:34.342Z,100.00
2022-08-28T03:05:56.049Z,100.00
2022-08-28T03:11:17.802Z,100.00
2022-08-28T03:16:40.030Z,100.00
2022-08-28T03:22:01.808Z,100.00
2022-08-28T03:27:23.538Z,100.00
2022-08-28T03:32:45.284Z,100.00
2022-08-28T03:38:07.080Z,100.00
2022-08-28T03:43:29.013Z,100.00
2022-08-28T03:48:52.517Z,100.00
2022-08-28T03:54:14.659Z,100.00
2022-08-28T03:59:36.452Z,100.00
2022-08-28T04:04:58.274Z,100.00
2022-08-28T04:10:20.010Z,100.00
2022-08-28T04:15:42.147Z,100.00
2022-08-28T04:21:10.489Z,100.00
2022-08-28T04:26:36.498Z,100.00
2022-08-28T04:31:58.323Z,100.00
2022-08-28T04:37:20.114Z,100.00
2022-08-28T04:42:45.083Z,100.00
2022-08-28T04:48:13.214Z,100.00
2022-08-28T04:53:37.344Z,100.00
2022-08-28T04:59:01.439Z,100.00
2022-08-28T05:04:23.268Z,100.00
2022-08-28T05:09:45.288Z,100.00
2022-08-28T05:15:07.612Z,100.00
2022-08-28T05:20:34.996Z,100.00
2022-08-28T05:25:57.670Z,100.00
2022-08-28T05:31:21.996Z,100.00
2022-08-28T05:36:43.809Z,100.00
2022-08-28T05:42:05.739Z,100.00
2022-08-28T05:47:32.548Z,100.00
2022-08-28T05:52:54.275Z,100.00
2022-08-28T05:58:31.813Z,100.00
2022-08-28T06:03:58.070Z,100.00
2022-08-28T06:09:28.745Z,100.00
2022-08-28T06:14:51.038Z,100.00
2022-08-28T06:20:12.774Z,100.00
2022-08-28T06:25:45.004Z,98.53
2022-08-28T06:31:24.492Z,99.77
2022-08-28T06:36:53.124Z,98.50
2022-08-28T06:42:15.823Z,100.00
2022-08-28T06:47:37.545Z,98.18
2022-08-28T06:53:00.008Z,97.81
2022-08-28T06:58:21.705Z,95.05
2022-08-28T07:03:45.306Z,94.90
2022-08-28T07:09:09.483Z,93.88
2022-08-28T07:14:31.180Z,94.10
2022-08-28T07:19:52.954Z,94.19
2022-08-28T07:25:14.679Z,93.13
2022-08-28T07:30:36.393Z,95.40
2022-08-28T07:35:59.256Z,94.02
2022-08-28T07:41:24.125Z,92.15
2022-08-28T07:46:46.087Z,94.17
2022-08-28T07:52:09.128Z,92.96
2022-08-28T07:57:32.053Z,92.47
2022-08-28T08:02:53.792Z,91.90
2022-08-28T08:08:15.519Z,91.22
2022-08-28T08:13:39.715Z,91.75
2022-08-28T08:19:02.296Z,91.08
2022-08-28T08:24:26.426Z,91.51
2022-08-28T08:29:49.020Z,90.58
2022-08-28T08:35:12.774Z,90.19
2022-08-28T08:40:35.573Z,89.82
2022-08-28T08:45:57.556Z,90.57
2022-08-28T08:51:26.889Z,92.52
2022-08-28T08:56:49.369Z,89.13
2022-08-28T09:02:18.092Z,89.98
2022-08-28T09:07:53.301Z,88.93
2022-08-28T09:13:26.404Z,88.54
2022-08-28T09:18:49.227Z,89.38
2022-08-28T09:24:24.722Z,89.47
2022-08-28T09:30:14.826Z,88.49
2022-08-28T09:35:37.755Z,87.28
2022-08-28T09:41:28.078Z,87.58
2022-08-28T09:46:51.438Z,85.51
2022-08-28T09:52:25.010Z,84.44
2022-08-28T09:57:48.262Z,82.88
2022-08-28T10:03:28.449Z,83.31
2022-08-28T10:09:02.637Z,80.90
2022-08-28T10:15:00.881Z,82.06
2022-08-28T10:20:49.821Z,79.83
2022-08-28T10:26:27.575Z,78.00
2022-08-28T10:32:11.200Z,78.98
2022-08-28T10:37:45.504Z,76.53
2022-08-28T10:43:11.957Z,75.62
2022-08-28T10:48:41.169Z,75.47
2022-08-28T10:54:40.989Z,75.10
2022-08-28T11:00:12.166Z,75.44
2022-08-28T11:06:11.494Z,73.69
2022-08-28T11:11:44.004Z,73.01
2022-08-28T11:17:11.001Z,73.49
2022-08-28T11:22:44.536Z,73.28
2022-08-28T11:28:40.248Z,73.02
2022-08-28T11:34:02.791Z,73.07
2022-08-28T11:39:24.589Z,69.87
2022-08-28T11:44:46.497Z,70.94
2022-08-28T11:50:15.923Z,69.10
2022-08-28T11:55:50.371Z,70.33
2022-08-28T12:01:14.291Z,70.26
2022-08-28T12:06:45.156Z,69.42
2022-08-28T12:12:45.453Z,66.22
2022-08-28T12:18:10.670Z,67.45
2022-08-28T12:23:36.588Z,68.02
2022-08-28T12:29:00.597Z,67.51
2022-08-28T12:34:40.681Z,65.39
2022-08-28T12:40:37.672Z,66.06
2022-08-28T12:46:04.082Z,65.31
2022-08-28T12:51:27.555Z,65.54
2022-08-28T12:56:49.264Z,63.49
2022-08-28T13:02:11.132Z,63.86
2022-08-28T13:07:55.142Z,64.05
2022-08-28T13:13:24.193Z,64.81
2022-08-28T13:18:55.447Z,63.59
2022-08-28T13:24:24.067Z,63.30
2022-08-28T13:30:00.655Z,62.93
2022-08-28T13:35:22.893Z,62.91
2022-08-28T13:40:57.820Z,61.08
2022-08-28T13:46:20.462Z,59.42
2022-08-28T13:51:42.511Z,60.98
2022-08-28T13:57:04.466Z,61.00
2022-08-28T14:02:45.471Z,60.92
2022-08-28T14:08:07.243Z,60.00
2022-08-28T14:13:29.244Z,59.87
2022-08-28T14:18:52.798Z,59.90
2022-08-28T14:24:14.873Z,59.55
2022-08-28T14:29:38.169Z,59.24
2022-08-28T14:34:59.952Z,58.92
2022-08-28T14:40:21.729Z,58.74
2022-08-28T14:45:50.227Z,59.97
2022-08-28T14:51:12.269Z,58.55
2022-08-28T14:56:34.826Z,58.50
2022-08-28T15:01:59.991Z,59.75
2022-08-28T15:07:22.686Z,58.70
2022-08-28T15:12:44.424Z,58.10
2022-08-28T15:18:07.026Z,57.27
2022-08-28T15:23:29.560Z,57.00
2022-08-28T15:28:55.390Z,58.05
2022-08-28T15:34:26.213Z,56.82
2022-08-28T15:40:06.550Z,56.04
2022-08-28T15:45:28.454Z,57.44
2022-08-28T15:50:50.256Z,58.69
2022-08-28T15:56:18.168Z,57.60
2022-08-28T16:01:40.466Z,57.52
2022-08-28T16:07:02.396Z,58.32
2022-08-28T16:12:25.435Z,59.37
2022-08-28T16:17:47.208Z,57.29
2022-08-28T16:23:10.494Z,56.91
2022-08-28T16:28:32.698Z,56.59
2022-08-28T16:33:54.645Z,55.91
2022-08-28T16:39:16.389Z,56.22
2022-08-28T16:44:38.096Z,54.72
2022-08-28T16:50:01.764Z,55.75
2022-08-28T16:55:23.470Z,54.88
2022-08-28T17:00:52.420Z,55.47
2022-08-28T17:06:18.425Z,56.29
2022-08-28T17:11:40.186Z,55.57
2022-08-28T17:17:01.987Z,54.52
2022-08-28T17:22:32.560Z,55.05
2022-08-28T17:27:54.493Z,54.52
2022-08-28T17:33:16.191Z,54.79
2022-08-28T17:38:38.480Z,55.44
2022-08-28T17:44:01.512Z,54.99
2022-08-28T17:49:24.580Z,55.47
2022-08-28T17:54:46.348Z,55.28
2022-08-28T18:00:11.470Z,55.78
2022-08-28T18:05:34.178Z,56.13
2022-08-28T18:10:55.895Z,56.28
2022-08-28T18:16:18.526Z,56.73
2022-08-28T18:21:41.010Z,57.35
2022-08-28T18:27:03.142Z,58.57
2022-08-28T18:32:25.020Z,59.40
2022-08-28T18:37:46.818Z,60.00
2022-08-28T18:43:13.705Z,60.41
2022-08-28T18:48:36.316Z,61.92
2022-08-28T18:54:00.881Z,61.71
2022-08-28T18:59:23.850Z,61.88
2022-08-28T19:04:45.622Z,63.74
2022-08-28T19:10:22.759Z,62.78
2022-08-28T19:15:52.524Z,63.76
2022-08-28T19:21:19.569Z,63.98
2022-08-28T19:26:41.296Z,64.31
2022-08-28T19:32:04.168Z,64.34
2022-08-28T19:37:26.316Z,66.54
2022-08-28T19:42:49.733Z,66.64
2022-08-28T19:48:12.095Z,65.45
2022-08-28T19:53:34.077Z,65.14
2022-08-28T19:58:59.031Z,65.28
2022-08-28T20:04:20.894Z,65.08
2022-08-28T20:09:42.699Z,65.38
2022-08-28T20:15:07.408Z,65.58
2022-08-28T20:20:30.235Z,66.73
2022-08-28T20:25:52.024Z,67.56
2022-08-28T20:31:16.938Z,67.72
2022-08-28T20:36:38.967Z,68.96
2022-08-28T20:42:00.784Z,69.68
2022-08-28T20:47:22.638Z,70.46
2022-08-28T20:52:45.603Z,70.66
2022-08-28T20:58:07.470Z,71.40
2022-08-28T21:03:29.176Z,70.37
2022-08-28T21:08:50.926Z,70.21
2022-08-28T21:14:13.269Z,70.77
2022-08-28T21:19:40.136Z,71.96
2022-08-28T21:25:07.158Z,72.80
2022-08-28T21:30:29.895Z,73.35
2022-08-28T21:35:51.717Z,74.42
2022-08-28T21:41:14.363Z,75.09
2022-08-28T21:46:36.069Z,76.00
2022-08-28T21:52:01.157Z,76.33
2022-08-28T21:57:22.907Z,75.80
2022-08-28T22:02:44.805Z,75.64
2022-08-28T22:08:07.277Z,75.63
2022-08-28T22:13:29.109Z,75.46
2022-08-28T22:18:51.260Z,76.87
2022-08-28T22:24:13.389Z,77.77
2022-08-28T22:29:36.572Z,77.37
2022-08-28T22:34:58.335Z,78.15
2022-08-28T22:40:21.668Z,77.21
2022-08-28T22:45:46.350Z,76.84
2022-08-28T22:51:12.546Z,78.49
2022-08-28T22:56:34.263Z,77.83
2022-08-28T23:01:58.735Z,77.53
2022-08-28T23:07:20.539Z,77.26
2022-08-28T23:12:42.749Z,77.10
2022-08-28T23:18:04.593Z,75.90
2022-08-28T23:23:26.348Z,76.10
2022-08-28T23:28:48.186Z,75.48
2022-08-28T23:34:10.082Z,76.11
2022-08-28T23:39:32.622Z,76.72
2022-08-28T23:44:55.004Z,77.16
2022-08-28T23:50:20.881Z,78.41
2022-08-28T23:55:42.786Z,79.00
